Time;durP1;ratioP1;P1;durP2;ratioP2;P2;SDS_P1;SDS_P2;PMS_P1;PMS_P2;Temp;Humidity;BMP_temperature;BMP_pressure;BME280_temperature;BME280_humidity;BME280_pressure;Samples;Min_cycle;Max_cycle;Signal;HPM_P1;HPM_P2
2023/11/20 00:00:24;;;;;;;18.83;9.17;;;12.10;91.20;;;;;;820707;175;26445;-88
2023/11/20 00:02:50;;;;;;;21.23;8.30;;;12.10;91.10;;;;;;821760;175;26424;-88
2023/11/20 00:05:19;;;;;;;12.43;4.47;;;12.10;91.20;;;;;;821884;175;26415;-88
2023/11/20 00:07:43;;;;;;;7.47;3.20;;;12.10;91.00;;;;;;821490;175;26582;-89
2023/11/20 00:10:10;;;;;;;7.27;2.40;;;12.10;91.20;;;;;;816616;174;26439;-88
2023/11/20 00:12:36;;;;;;;7.17;2.50;;;12.10;91.20;;;;;;813501;174;26972;-88
2023/11/20 00:15:03;;;;;;;10.77;3.37;;;12.10;91.30;;;;;;810573;174;26413;-88
2023/11/20 00:17:30;;;;;;;7.07;2.70;;;12.10;91.50;;;;;;815890;174;26954;-88
2023/11/20 00:19:56;;;;;;;20.00;9.03;;;12.10;91.30;;;;;;819047;174;26606;-88
2023/11/20 00:22:23;;;;;;;53.90;29.07;;;12.10;91.30;;;;;;807741;174;26420;-88
2023/11/20 00:24:51;;;;;;;28.50;14.47;;;12.10;91.50;;;;;;813918;174;26420;-88
2023/11/20 00:27:21;;;;;;;60.40;33.40;;;12.10;91.70;;;;;;814603;172;26422;-88
2023/11/20 00:30:01;;;;;;;37.60;17.53;;;12.10;91.60;;;;;;806869;173;26436;-88
2023/11/20 00:32:44;;;;;;;17.93;6.30;;;12.00;92.10;;;;;;759194;189;26497;-87
2023/11/20 00:35:14;;;;;;;8.37;2.77;;;11.90;92.40;;;;;;757346;188;26534;-87
2023/11/20 00:37:38;;;;;;;8.30;2.70;;;11.80;93.20;;;;;;753613;186;27064;-88
2023/11/20 00:57:07;;;;;;;23.13;8.93;;;11.30;95.70;;;;;;732942;175;26511;-89
2023/11/20 01:08:26;;;;;;;19.87;5.63;;;11.30;95.30;;;;;;772695;184;27112;-87
2023/11/20 01:11:31;;;;;;;;;;;;;;;;;;;;;
2023/11/20 01:17:12;;;;;;;10.93;3.00;;;11.40;95.00;;;;;;734892;193;26568;-89
2023/11/20 01:22:38;;;;;;;12.87;2.80;;;11.50;94.40;;;;;;744039;187;26549;-89
2023/11/20 01:25:32;;;;;;;17.07;3.17;;;11.50;94.60;;;;;;740628;192;27124;-89
2023/11/20 01:28:12;;;;;;;8.77;3.53;;;11.50;94.60;;;;;;732033;191;26498;-88
2023/11/20 01:39:19;;;;;;;12.20;4.10;;;11.40;94.30;;;;;;739548;175;26504;-87
2023/11/20 01:42:04;;;;;;;14.53;3.97;;;11.50;94.50;;;;;;781791;183;26497;-90
2023/11/20 01:53:31;;;;;;;12.60;2.47;;;11.70;93.10;;;;;;716851;180;26564;-89
2023/11/20 01:56:16;;;;;;;9.73;2.63;;;11.60;93.00;;;;;;742184;187;26593;-86
2023/11/20 02:01:45;;;;;;;10.43;2.57;;;11.60;93.50;;;;;;749961;185;26599;-89
2023/11/20 02:04:45;;;;;;;12.00;4.70;;;11.60;93.20;;;;;;750627;189;26521;-89
2023/11/20 02:07:12;;;;;;;11.67;3.87;;;11.60;93.30;;;;;;786849;177;27017;-89
2023/11/20 02:09:38;;;;;;;9.77;2.80;;;11.50;93.80;;;;;;792697;181;26489;-89
2023/11/20 02:12:05;;;;;;;14.97;5.10;;;11.40;94.00;;;;;;779571;181;26995;-89
2023/11/20 02:14:32;;;;;;;16.57;4.53;;;11.40;94.40;;;;;;791465;179;26474;-89
2023/11/20 02:16:58;;;;;;;17.37;4.23;;;11.40;94.60;;;;;;777147;184;27055;-89
2023/11/20 02:19:38;;;;;;;15.40;5.00;;;11.30;94.40;;;;;;766542;184;26508;-89
2023/11/20 02:22:06;;;;;;;13.50;3.27;;;11.30;94.60;;;;;;767266;186;26478;-89
2023/11/20 02:24:31;;;;;;;12.07;3.77;;;11.30;94.50;;;;;;783198;180;26534;-89
2023/11/20 02:27:14;;;;;;;11.57;4.23;;;11.30;94.40;;;;;;761339;184;26514;-89
2023/11/20 02:29:42;;;;;;;19.47;8.80;;;11.20;94.30;;;;;;769561;183;27115;-89
2023/11/20 02:32:08;;;;;;;26.27;9.57;;;11.20;94.40;;;;;;771961;183;28104;-89
2023/11/20 02:34:36;;;;;;;9.70;2.87;;;11.30;93.90;;;;;;772377;182;26542;-88
2023/11/20 02:37:03;;;;;;;14.73;5.80;;;11.40;93.30;;;;;;778991;180;26484;-88
2023/11/20 02:39:28;;;;;;;11.30;5.47;;;11.40;93.40;;;;;;777110;180;26485;-88
2023/11/20 02:42:00;;;;;;;8.57;2.27;;;11.40;92.70;;;;;;776928;184;26476;-88
2023/11/20 02:44:26;;;;;;;11.10;4.17;;;11.40;92.40;;;;;;773333;182;26662;-88
2023/11/20 02:46:59;;;;;;;10.70;2.97;;;11.50;92.40;;;;;;778641;181;26497;-88
2023/11/20 02:49:26;;;;;;;9.87;2.40;;;11.50;91.90;;;;;;773210;183;26480;-88
2023/11/20 02:51:52;;;;;;;8.50;2.70;;;11.40;92.10;;;;;;778741;183;26513;-88
2023/11/20 02:54:21;;;;;;;9.73;2.67;;;11.40;92.20;;;;;;776112;180;26489;-88
2023/11/20 02:56:48;;;;;;;10.57;3.00;;;11.30;92.30;;;;;;774514;183;26529;-88
2023/11/20 02:59:14;;;;;;;8.40;2.33;;;11.30;92.00;;;;;;778910;183;26505;-87
2023/11/20 03:01:46;;;;;;;9.03;2.70;;;11.30;91.90;;;;;;780548;183;26521;-88
2023/11/20 03:04:12;;;;;;;9.80;2.30;;;11.40;91.70;;;;;;772966;183;27059;-88
2023/11/20 03:06:39;;;;;;;9.20;2.07;;;11.40;91.70;;;;;;769821;183;26493;-88
2023/11/20 03:09:05;;;;;;;8.50;2.47;;;11.40;91.40;;;;;;769030;187;27035;-87
2023/11/20 03:11:32;;;;;;;7.60;2.20;;;11.40;91.50;;;;;;769676;184;26568;-87
2023/11/20 03:13:58;;;;;;;10.23;2.40;;;11.40;91.70;;;;;;779840;182;26464;-87
2023/11/20 03:16:25;;;;;;;11.83;2.60;;;11.40;91.70;;;;;;778032;183;26542;-87
2023/11/20 03:18:52;;;;;;;11.27;3.07;;;11.40;91.90;;;;;;782990;184;27078;-87
2023/11/20 03:21:18;;;;;;;7.37;2.40;;;11.50;91.70;;;;;;779943;184;26534;-87
2023/11/20 03:23:53;;;;;;;7.27;2.97;;;11.50;91.50;;;;;;776940;183;27161;-87
2023/11/20 03:26:22;;;;;;;6.73;2.20;;;11.50;91.20;;;;;;763938;187;27275;-87
2023/11/20 03:28:49;;;;;;;8.27;2.60;;;11.60;91.10;;;;;;769270;183;26514;-87
2023/11/20 03:31:15;;;;;;;6.10;2.13;;;11.50;91.10;;;;;;777132;183;27120;-87
2023/11/20 03:33:42;;;;;;;5.47;2.30;;;11.40;91.50;;;;;;775846;182;26499;-87
2023/11/20 03:36:23;;;;;;;9.53;2.10;;;11.30;91.50;;;;;;775799;183;26508;-87
2023/11/20 03:38:50;;;;;;;6.27;2.00;;;11.30;91.80;;;;;;776818;184;26556;-89
2023/11/20 03:41:20;;;;;;;5.43;2.30;;;11.30;91.80;;;;;;776969;184;26537;-89
2023/11/20 03:43:47;;;;;;;6.53;2.10;;;11.30;91.90;;;;;;772441;180;26485;-86
2023/11/20 03:46:13;;;;;;;6.10;2.00;;;11.30;92.10;;;;;;776453;181;27126;-88
2023/11/20 03:48:47;;;;;;;5.77;2.23;;;11.30;91.90;;;;;;772080;184;26481;-88
2023/11/20 03:51:14;;;;;;;4.67;1.83;;;11.40;91.90;;;;;;780009;184;27081;-87
2023/11/20 03:53:41;;;;;;;7.00;2.10;;;11.40;92.00;;;;;;783579;183;26414;-87
2023/11/20 03:56:09;;;;;;;6.70;2.47;;;11.50;91.70;;;;;;781229;184;26421;-88
2023/11/20 03:58:35;;;;;;;2.00;1.50;;;11.50;91.80;;;;;;777508;184;26483;-88
2023/11/20 04:01:02;;;;;;;4.77;1.80;;;11.50;91.80;;;;;;768982;183;27035;-88
2023/11/20 04:03:32;;;;;;;5.57;1.80;;;11.40;92.00;;;;;;770728;185;26484;-87
2023/11/20 04:05:58;;;;;;;5.47;2.00;;;11.40;92.20;;;;;;770952;186;26502;-87
2023/11/20 04:08:25;;;;;;;6.10;1.90;;;11.40;92.10;;;;;;772183;183;26701;-88
2023/11/20 04:10:51;;;;;;;3.37;1.57;;;11.50;92.00;;;;;;775827;184;26480;-87
2023/11/20 04:13:18;;;;;;;7.50;2.00;;;11.50;91.80;;;;;;776101;183;26398;-87
2023/11/20 04:15:45;;;;;;;6.73;2.07;;;11.50;92.30;;;;;;779100;183;26448;-89
2023/11/20 04:18:15;;;;;;;5.33;1.70;;;11.50;92.80;;;;;;779339;184;26469;-89
2023/11/20 04:20:46;;;;;;;4.23;1.87;;;11.40;93.40;;;;;;781549;178;26436;-89
2023/11/20 04:23:15;;;;;;;7.83;2.47;;;11.30;93.40;;;;;;775347;183;26473;-88
2023/11/20 04:25:39;;;;;;;3.97;1.73;;;11.30;93.50;;;;;;778728;183;26509;-88
2023/11/20 04:28:06;;;;;;;4.93;1.80;;;11.20;93.70;;;;;;773293;184;26514;-88
2023/11/20 04:30:39;;;;;;;10.27;2.20;;;11.20;93.70;;;;;;777501;183;26413;-88
2023/11/20 04:33:06;;;;;;;5.70;1.70;;;11.20;93.70;;;;;;783066;183;26389;-88
2023/11/20 04:35:33;;;;;;;3.93;1.80;;;11.30;93.40;;;;;;774466;184;28131;-89
2023/11/20 04:37:59;;;;;;;7.97;1.90;;;11.30;93.20;;;;;;762663;184;26413;-88
2023/11/20 04:40:28;;;;;;;4.90;2.33;;;11.40;93.10;;;;;;778892;183;26406;-88
2023/11/20 04:42:54;;;;;;;4.30;2.17;;;11.40;92.80;;;;;;775212;180;26469;-88
2023/11/20 04:45:21;;;;;;;6.40;1.83;;;11.40;93.00;;;;;;763413;186;26702;-88
2023/11/20 04:47:48;;;;;;;6.63;2.50;;;11.40;93.10;;;;;;774642;181;26485;-88
2023/11/20 04:50:15;;;;;;;7.10;3.33;;;11.40;93.10;;;;;;775708;184;26980;-88
2023/11/20 04:52:41;;;;;;;6.80;2.00;;;11.40;92.50;;;;;;777067;184;26401;-87
2023/11/20 04:55:25;;;;;;;7.93;2.50;;;11.50;92.10;;;;;;779088;184;26408;-87
2023/11/20 04:58:20;;;;;;;5.80;2.00;;;11.50;92.10;;;;;;774675;184;26479;-89
2023/11/20 05:03:43;;;;;;;7.97;2.20;;;11.60;91.80;;;;;;778552;184;26371;-88
2023/11/20 05:06:11;;;;;;;5.50;1.80;;;11.60;91.80;;;;;;779733;184;26465;-88
2023/11/20 05:08:37;;;;;;;3.97;1.87;;;11.50;91.60;;;;;;780324;182;26481;-88
2023/11/20 05:11:04;;;;;;;6.60;1.90;;;11.50;91.90;;;;;;778413;184;26478;-88
2023/11/20 05:13:31;;;;;;;5.30;1.77;;;11.50;91.90;;;;;;775197;182;26496;-87
2023/11/20 05:15:57;;;;;;;6.90;2.20;;;11.50;91.60;;;;;;780898;179;26438;-87
2023/11/20 05:18:24;;;;;;;9.57;2.50;;;11.50;91.60;;;;;;779081;183;26414;-87
2023/11/20 05:20:50;;;;;;;5.73;2.13;;;11.50;91.50;;;;;;779671;183;26469;-87
2023/11/20 05:23:17;;;;;;;5.80;1.97;;;11.50;91.20;;;;;;779025;183;26434;-87
2023/11/20 05:25:43;;;;;;;9.63;2.63;;;11.50;91.00;;;;;;780886;183;26432;-88
2023/11/20 05:28:10;;;;;;;9.20;2.50;;;11.60;90.70;;;;;;781064;183;26425;-87
2023/11/20 05:30:38;;;;;;;10.20;2.60;;;11.60;90.80;;;;;;777520;183;26483;-87
2023/11/20 05:33:03;;;;;;;8.73;2.70;;;11.60;90.20;;;;;;779240;183;26414;-87
2023/11/20 05:35:30;;;;;;;8.37;2.60;;;11.60;90.10;;;;;;781479;176;26427;-87
2023/11/20 05:37:56;;;;;;;12.47;3.07;;;11.60;90.20;;;;;;775787;176;26424;-89
2023/11/20 05:40:24;;;;;;;9.57;2.47;;;11.70;89.90;;;;;;777013;180;26522;-88
2023/11/20 05:42:50;;;;;;;9.40;2.83;;;11.70;89.60;;;;;;776349;183;26413;-89
2023/11/20 05:45:16;;;;;;;10.17;2.60;;;11.70;89.40;;;;;;776825;183;26417;-86
2023/11/20 05:47:43;;;;;;;8.93;2.70;;;11.70;89.70;;;;;;777928;183;26402;-86
2023/11/20 05:50:09;;;;;;;11.97;3.07;;;11.70;89.30;;;;;;780702;181;26429;-87
2023/11/20 05:52:37;;;;;;;11.70;2.60;;;11.70;89.80;;;;;;772035;184;26481;-87
2023/11/20 05:55:03;;;;;;;4.83;2.13;;;11.70;89.30;;;;;;769144;187;26489;-87
2023/11/20 05:57:37;;;;;;;13.27;2.70;;;11.60;89.70;;;;;;769881;184;26489;-87
2023/11/20 06:00:04;;;;;;;12.60;2.90;;;11.70;89.40;;;;;;769369;183;26488;-87
2023/11/20 06:02:29;;;;;;;15.67;3.77;;;11.60;89.30;;;;;;777334;183;26417;-87
2023/11/20 06:05:09;;;;;;;9.83;2.90;;;11.60;90.00;;;;;;781165;184;26406;-87
2023/11/20 06:07:38;;;;;;;12.73;3.07;;;11.50;89.90;;;;;;780265;182;26467;-87
2023/11/20 06:10:06;;;;;;;15.97;3.47;;;11.50;90.00;;;;;;780438;182;26410;-87
2023/11/20 06:12:32;;;;;;;8.07;2.60;;;11.40;90.00;;;;;;775806;184;26476;-86
2023/11/20 06:15:00;;;;;;;12.07;3.27;;;11.40;90.10;;;;;;777333;181;26484;-87
2023/11/20 06:17:25;;;;;;;9.43;2.90;;;11.30;90.30;;;;;;774244;184;26435;-86
2023/11/20 06:19:52;;;;;;;19.50;3.30;;;11.40;90.10;;;;;;777168;184;26625;-86
2023/11/20 06:22:19;;;;;;;14.70;3.03;;;11.30;90.00;;;;;;776214;183;26477;-87
2023/11/20 06:24:45;;;;;;;14.07;3.10;;;11.30;90.10;;;;;;777267;184;27095;-86
2023/11/20 06:27:12;;;;;;;17.77;3.30;;;11.30;90.10;;;;;;777436;183;26507;-86
2023/11/20 06:29:38;;;;;;;15.20;3.27;;;11.30;90.00;;;;;;777590;183;27038;-87
2023/11/20 06:32:06;;;;;;;14.17;3.17;;;11.30;90.00;;;;;;776686;181;26406;-87
2023/11/20 06:34:32;;;;;;;9.37;3.90;;;11.40;90.00;;;;;;779857;184;27055;-87
2023/11/20 06:36:58;;;;;;;12.73;3.10;;;11.30;90.00;;;;;;775529;184;26406;-86
2023/11/20 06:39:25;;;;;;;12.77;3.07;;;11.30;89.80;;;;;;776254;181;27061;-86
2023/11/20 06:41:52;;;;;;;12.27;3.57;;;11.40;89.80;;;;;;776337;183;26528;-86
2023/11/20 06:44:18;;;;;;;12.40;2.87;;;11.40;89.70;;;;;;775263;183;27016;-86
2023/11/20 06:46:45;;;;;;;13.90;3.33;;;11.40;89.20;;;;;;775173;184;26489;-86
2023/11/20 06:49:11;;;;;;;11.17;3.47;;;11.40;89.20;;;;;;773441;183;26483;-86
2023/11/20 06:51:38;;;;;;;13.63;3.20;;;11.40;88.90;;;;;;774194;183;26396;-86
2023/11/20 06:54:05;;;;;;;15.53;3.37;;;11.40;89.00;;;;;;778418;183;26489;-86
2023/11/20 06:56:33;;;;;;;17.33;3.37;;;11.40;89.30;;;;;;781970;183;26442;-86
2023/11/20 06:58:58;;;;;;;12.27;3.00;;;11.40;88.60;;;;;;780149;183;26975;-86
2023/11/20 07:01:24;;;;;;;12.30;3.10;;;11.40;88.60;;;;;;779930;183;26501;-87
2023/11/20 07:03:52;;;;;;;14.60;3.97;;;11.40;88.70;;;;;;776205;183;26382;-87
2023/11/20 07:06:19;;;;;;;15.13;3.30;;;11.40;88.60;;;;;;778326;183;26409;-86
2023/11/20 07:08:44;;;;;;;12.70;3.70;;;11.40;89.30;;;;;;776216;181;26421;-86
2023/11/20 07:11:11;;;;;;;16.53;3.10;;;11.40;90.00;;;;;;783216;184;26415;-87
2023/11/20 07:13:37;;;;;;;12.53;3.27;;;11.40;89.60;;;;;;769476;183;26511;-87
2023/11/20 07:16:04;;;;;;;7.97;3.30;;;11.50;88.70;;;;;;771139;184;26423;-86
2023/11/20 07:18:31;;;;;;;10.13;2.83;;;11.50;89.80;;;;;;781523;183;26433;-87
2023/11/20 07:20:57;;;;;;;13.13;3.77;;;11.50;89.30;;;;;;779525;183;26394;-87
2023/11/20 07:23:24;;;;;;;12.90;3.00;;;11.40;89.20;;;;;;775172;184;26532;-87
2023/11/20 07:25:53;;;;;;;15.30;3.07;;;11.40;89.00;;;;;;781339;183;26485;-87
2023/11/20 07:28:22;;;;;;;10.43;3.20;;;11.40;89.50;;;;;;776527;184;26423;-88
2023/11/20 07:30:49;;;;;;;11.17;3.13;;;11.40;88.90;;;;;;773525;181;26442;-87
2023/11/20 07:33:15;;;;;;;11.93;3.40;;;11.50;88.60;;;;;;780089;184;26468;-86
2023/11/20 07:35:42;;;;;;;13.77;2.97;;;11.50;88.50;;;;;;777086;184;26493;-87
2023/11/20 07:38:08;;;;;;;10.27;2.77;;;11.50;89.00;;;;;;774393;183;26506;-87
2023/11/20 07:40:38;;;;;;;15.97;3.30;;;11.50;88.60;;;;;;780758;183;26423;-87
2023/11/20 07:43:05;;;;;;;13.87;3.10;;;11.50;88.30;;;;;;776297;182;26464;-86
2023/11/20 07:45:32;;;;;;;9.43;3.00;;;11.50;87.90;;;;;;774446;181;26494;-86
2023/11/20 07:47:59;;;;;;;15.13;3.27;;;11.50;87.90;;;;;;777561;183;26481;-87
2023/11/20 07:50:25;;;;;;;11.80;3.63;;;11.60;88.90;;;;;;771463;183;26487;-87
2023/11/20 07:52:51;;;;;;;8.90;2.77;;;11.50;87.90;;;;;;774130;183;28022;-86
2023/11/20 07:55:18;;;;;;;12.37;2.80;;;11.50;88.40;;;;;;782847;183;26394;-86
2023/11/20 07:57:46;;;;;;;14.13;2.87;;;11.60;89.10;;;;;;780242;184;26410;-87
2023/11/20 08:00:12;;;;;;;15.50;3.17;;;11.50;88.50;;;;;;773216;183;26490;-86
2023/11/20 08:02:38;;;;;;;13.20;3.37;;;11.60;88.40;;;;;;770621;182;26472;-87
2023/11/20 08:05:07;;;;;;;13.77;3.03;;;11.60;88.30;;;;;;776111;183;27005;-86
2023/11/20 08:08:04;;;;;;;;;;;;;;;;;;;;;
2023/11/20 08:28:07;;;;;;;;;;;;;;;;;;;;;
2023/11/20 09:40:24;;;;;;;11.40;2.90;;;11.70;90.10;;;;;;737271;180;26492;-88
2023/11/20 09:43:55;;;;;;;;;;;;;;;;;;;;;
2023/11/20 10:13:33;;;;;;;20.80;9.20;;;12.40;86.50;;;;;;753734;188;26536;-87
2023/11/20 10:15:59;;;;;;;12.93;6.07;;;12.50;87.10;;;;;;771797;183;26476;-88
2023/11/20 10:18:26;;;;;;;9.73;3.43;;;12.60;86.00;;;;;;763325;188;26973;-87
2023/11/20 10:20:52;;;;;;;11.33;3.07;;;12.60;85.00;;;;;;774523;184;26464;-88
2023/11/20 10:23:19;;;;;;;8.17;2.50;;;12.70;84.60;;;;;;772922;183;27100;-88
2023/11/20 10:25:46;;;;;;;8.17;2.30;;;12.80;84.70;;;;;;742698;191;26743;-88
2023/11/20 10:28:14;;;;;;;10.77;2.73;;;12.80;84.60;;;;;;748652;188;26525;-88
2023/11/20 10:30:43;;;;;;;6.97;2.30;;;12.70;86.20;;;;;;774691;185;26504;-88
2023/11/20 10:33:18;;;;;;;12.40;2.93;;;12.60;85.20;;;;;;774029;185;28093;-87
2023/11/20 10:35:45;;;;;;;7.67;3.40;;;12.60;86.70;;;;;;772599;185;26495;-87
2023/11/20 10:38:28;;;;;;;12.43;5.30;;;12.40;85.40;;;;;;771527;185;26475;-89
2023/11/20 10:43:37;;;;;;;16.67;6.83;;;12.40;87.60;;;;;;733507;178;26534;-88
2023/11/20 10:49:00;;;;;;;7.80;4.17;;;12.20;89.40;;;;;;763465;187;26500;-87
2023/11/20 10:51:35;;;;;;;8.83;3.63;;;12.20;89.00;;;;;;761934;188;27057;-88
2023/11/20 10:54:10;;;;;;;11.17;3.33;;;12.10;89.10;;;;;;760906;187;26496;-88
2023/11/20 11:02:19;;;;;;;5.53;2.33;;;12.00;89.80;;;;;;724891;179;27053;-88
2023/11/20 11:04:57;;;;;;;7.60;2.80;;;11.90;90.00;;;;;;777781;185;26477;-88
2023/11/20 11:07:33;;;;;;;11.33;4.60;;;11.90;91.00;;;;;;772418;185;26563;-88
2023/11/20 11:10:22;;;;;;;;;;;;;;;;;;;;;
2023/11/20 11:12:56;;;;;;;13.90;6.77;;;11.80;91.20;;;;;;754141;186;26518;-88
2023/11/20 11:15:30;;;;;;;17.13;9.37;;;11.80;90.60;;;;;;758080;186;26513;-86
2023/11/20 11:18:14;;;;;;;5.50;2.30;;;11.80;90.80;;;;;;757489;187;27017;-89
2023/11/20 11:20:55;;;;;;;5.67;3.43;;;11.90;90.90;;;;;;751667;188;28515;-87
2023/11/20 11:23:33;;;;;;;14.63;7.60;;;12.00;91.00;;;;;;751653;187;27048;-87
2023/11/20 11:26:25;;;;;;;10.40;5.20;;;12.10;90.50;;;;;;753634;187;26537;-86
2023/11/20 11:28:59;;;;;;;15.30;8.00;;;12.20;90.30;;;;;;751523;191;26514;-86
2023/11/20 11:31:46;;;;;;;9.20;5.07;;;12.20;89.60;;;;;;751638;185;26485;-87
2023/11/20 11:34:36;;;;;;;24.40;13.80;;;12.30;89.30;;;;;;750104;186;26497;-89
2023/11/20 11:40:03;;;;;;;8.57;4.50;;;12.30;89.20;;;;;;751113;187;26526;-86
2023/11/20 11:42:44;;;;;;;6.57;3.67;;;12.40;89.70;;;;;;755729;187;26471;-86
2023/11/20 11:53:31;;;;;;;6.13;3.27;;;11.20;93.20;;;;;;714654;177;27104;-86
2023/11/20 11:59:18;;;;;;;11.53;5.23;;;11.00;95.20;;;;;;738946;191;27144;-91
2023/11/20 12:02:17;;;;;;;;;;;;;;;;;;;;;
2023/11/20 12:08:32;;;;;;;;;;;;;;;;;;;;;
2023/11/20 12:11:20;;;;;;;14.23;8.37;;;12.00;93.60;;;;;;745885;189;26497;-87
2023/11/20 12:14:02;;;;;;;19.33;11.70;;;13.20;90.10;;;;;;759518;188;26504;-86
2023/11/20 12:16:48;;;;;;;39.83;24.67;;;13.80;85.50;;;;;;760162;187;26999;-86
2023/11/20 12:19:27;;;;;;;23.53;15.43;;;14.20;87.10;;;;;;763878;186;27089;-86
2023/11/20 12:22:07;;;;;;;7.73;4.40;;;14.60;79.40;;;;;;767376;186;26525;-86
2023/11/20 12:24:47;;;;;;;14.03;8.20;;;14.20;78.10;;;;;;769808;185;26490;-85
2023/11/20 12:27:13;;;;;;;16.80;8.67;;;13.80;79.30;;;;;;762052;186;27106;-86
2023/11/20 12:32:19;;;;;;;7.80;3.93;;;12.40;86.90;;;;;;762786;187;26471;-85
2023/11/20 12:35:03;;;;;;;;;;;;;;;;;;;;;
2023/11/20 12:37:36;;;;;;;34.30;20.40;;;12.10;88.20;;;;;;779526;173;26487;-87
2023/11/20 12:40:11;;;;;;;40.63;21.27;;;12.00;91.00;;;;;;792341;180;27068;-88
2023/11/20 12:42:37;;;;;;;40.97;21.13;;;11.90;90.10;;;;;;776043;183;28142;-87
2023/11/20 12:45:21;;;;;;;11.90;6.43;;;11.80;89.30;;;;;;793025;180;26518;-84
2023/11/20 12:47:58;;;;;;;6.40;3.70;;;11.80;90.50;;;;;;784560;177;26533;-86
2023/11/20 12:53:18;;;;;;;20.10;10.23;;;11.70;90.00;;;;;;773949;183;26444;-84
2023/11/20 12:55:46;;;;;;;21.70;12.10;;;11.60;90.30;;;;;;777030;181;27038;-87
2023/11/20 13:00:53;;;;;;;15.13;6.83;;;11.60;90.20;;;;;;770281;184;26555;-88
2023/11/20 13:03:31;;;;;;;25.63;12.33;;;11.60;90.30;;;;;;794028;177;28051;-86
2023/11/20 13:06:10;;;;;;;24.23;11.43;;;11.50;89.20;;;;;;774975;185;26486;-86
2023/11/20 13:08:48;;;;;;;13.37;4.90;;;11.40;90.00;;;;;;778986;184;26538;-85
2023/11/20 13:11:36;;;;;;;;;;;;;;;;;;;;;
2023/11/20 13:14:06;;;;;;;7.30;2.80;;;11.00;91.70;;;;;;772735;185;26515;-89
2023/11/20 13:19:32;;;;;;;8.27;3.37;;;10.60;93.10;;;;;;727452;179;27085;-90
2023/11/20 13:22:12;;;;;;;19.20;7.53;;;10.50;93.40;;;;;;780038;184;26541;-88
2023/11/20 13:25:00;;;;;;;14.07;6.73;;;10.50;93.60;;;;;;790802;181;26454;-87
2023/11/20 13:27:35;;;;;;;16.67;10.03;;;10.40;94.20;;;;;;780365;178;26549;-86
2023/11/20 13:30:16;;;;;;;9.77;5.23;;;10.40;94.20;;;;;;765436;187;26494;-86
2023/11/20 13:32:45;;;;;;;8.17;3.17;;;10.50;93.80;;;;;;790157;179;26479;-88
2023/11/20 13:35:11;;;;;;;11.17;4.27;;;10.50;93.50;;;;;;800515;177;26997;-88
2023/11/20 13:37:39;;;;;;;9.43;3.57;;;10.70;93.60;;;;;;802822;175;26432;-91
2023/11/20 13:40:13;;;;;;;20.03;9.57;;;11.10;92.20;;;;;;802078;179;26442;-89
2023/11/20 13:42:39;;;;;;;18.30;10.07;;;11.20;92.10;;;;;;804553;178;27019;-88
2023/11/20 13:45:07;;;;;;;15.90;9.47;;;11.00;92.10;;;;;;801980;177;26478;-88
2023/11/20 13:47:34;;;;;;;13.63;7.53;;;10.70;93.00;;;;;;796434;177;26971;-87
2023/11/20 13:50:00;;;;;;;17.63;7.40;;;10.70;93.30;;;;;;800413;177;26467;-88
2023/11/20 13:52:27;;;;;;;14.83;5.77;;;10.60;92.90;;;;;;800137;177;26490;-88
2023/11/20 13:54:57;;;;;;;9.83;3.63;;;10.60;93.00;;;;;;794546;177;26708;-88
2023/11/20 13:57:24;;;;;;;27.50;11.00;;;10.50;93.00;;;;;;808627;178;26429;-88
2023/11/20 13:59:50;;;;;;;63.20;32.20;;;10.50;93.50;;;;;;801346;176;26432;-87
2023/11/20 14:02:19;;;;;;;42.63;22.10;;;10.50;93.80;;;;;;801243;178;26983;-87
2023/11/20 14:04:44;;;;;;;18.73;8.33;;;10.50;94.10;;;;;;793769;178;26460;-88
2023/11/20 14:07:11;;;;;;;22.60;7.80;;;10.60;93.80;;;;;;808421;178;26526;-86
2023/11/20 14:09:39;;;;;;;39.33;21.17;;;10.50;93.20;;;;;;804831;176;26462;-87
2023/11/20 14:12:05;;;;;;;96.03;41.50;;;10.50;93.70;;;;;;801083;178;26458;-87
2023/11/20 14:14:32;;;;;;;166.83;75.97;;;10.60;94.10;;;;;;803542;178;26450;-86
2023/11/20 14:16:58;;;;;;;99.63;44.63;;;10.60;94.00;;;;;;796926;179;26989;-87
2023/11/20 14:19:25;;;;;;;46.10;20.73;;;10.60;93.70;;;;;;798538;178;26435;-87
2023/11/20 14:21:51;;;;;;;52.50;30.90;;;10.60;94.40;;;;;;799552;178;27090;-87
2023/11/20 14:24:18;;;;;;;21.83;13.00;;;10.50;93.90;;;;;;797019;177;26444;-87
2023/11/20 14:26:44;;;;;;;31.33;14.33;;;10.50;93.50;;;;;;805727;178;27000;-87
2023/11/20 14:29:11;;;;;;;52.50;25.20;;;10.50;93.60;;;;;;800993;178;26436;-87
2023/11/20 14:31:39;;;;;;;50.87;23.90;;;10.50;93.70;;;;;;802057;176;28053;-88
2023/11/20 14:34:04;;;;;;;189.60;87.73;;;10.50;94.00;;;;;;793709;177;26448;-87
2023/11/20 14:36:32;;;;;;;175.70;87.07;;;10.40;93.90;;;;;;800190;179;26438;-87
2023/11/20 14:38:57;;;;;;;49.33;27.33;;;10.50;94.30;;;;;;803638;178;26576;-87
2023/11/20 14:41:24;;;;;;;93.80;46.50;;;10.50;94.20;;;;;;799408;177;26435;-88
2023/11/20 14:43:50;;;;;;;48.13;24.30;;;10.50;94.20;;;;;;797835;178;28295;-87
2023/11/20 14:46:17;;;;;;;53.87;29.07;;;10.50;94.30;;;;;;800524;176;26517;-88
2023/11/20 14:48:44;;;;;;;37.87;20.23;;;10.50;94.40;;;;;;792330;177;26994;-87
2023/11/20 14:51:10;;;;;;;17.33;8.77;;;10.50;94.20;;;;;;794516;177;26455;-87
2023/11/20 14:53:38;;;;;;;17.20;6.97;;;10.50;94.00;;;;;;807091;177;26445;-87
2023/11/20 14:56:06;;;;;;;25.63;10.17;;;10.50;93.80;;;;;;796307;176;26471;-87
2023/11/20 14:58:34;;;;;;;71.90;37.67;;;10.60;93.60;;;;;;799654;178;26447;-88
2023/11/20 15:01:01;;;;;;;30.17;15.13;;;10.60;93.40;;;;;;798821;176;26469;-87
2023/11/20 15:03:28;;;;;;;37.63;18.33;;;10.60;93.40;;;;;;792371;181;26574;-88
2023/11/20 15:05:55;;;;;;;28.33;12.97;;;10.60;93.50;;;;;;792999;179;26457;-88
2023/11/20 15:08:21;;;;;;;15.43;4.57;;;10.60;93.50;;;;;;794634;178;26441;-87
2023/11/20 15:10:48;;;;;;;20.13;8.23;;;10.60;93.60;;;;;;795608;180;26963;-87
2023/11/20 15:13:14;;;;;;;24.30;10.53;;;10.60;93.60;;;;;;796069;181;26460;-88
2023/11/20 15:15:41;;;;;;;15.93;3.83;;;10.60;93.40;;;;;;796204;181;26452;-88
2023/11/20 15:18:08;;;;;;;19.20;8.37;;;10.50;93.30;;;;;;799919;180;26472;-87
2023/11/20 15:20:34;;;;;;;14.37;5.23;;;10.50;93.20;;;;;;803210;178;26444;-86
2023/11/20 15:23:01;;;;;;;16.93;7.70;;;10.50;93.40;;;;;;797047;178;26454;-88
2023/11/20 15:25:27;;;;;;;15.73;5.83;;;10.50;93.70;;;;;;797044;176;26459;-87
2023/11/20 15:28:02;;;;;;;28.43;14.73;;;10.40;93.60;;;;;;800298;177;26440;-88
2023/11/20 15:30:28;;;;;;;93.17;42.90;;;10.40;93.70;;;;;;800073;177;26463;-87
2023/11/20 15:32:56;;;;;;;24.60;10.00;;;10.40;93.60;;;;;;795427;176;26473;-87
2023/11/20 15:35:22;;;;;;;160.20;77.00;;;10.40;93.80;;;;;;792739;177;26444;-88
2023/11/20 15:37:48;;;;;;;46.80;22.40;;;10.40;93.80;;;;;;789061;180;26464;-88
2023/11/20 15:40:15;;;;;;;128.97;65.17;;;10.40;94.00;;;;;;788997;181;26970;-88
2023/11/20 15:42:41;;;;;;;32.53;17.33;;;10.40;94.10;;;;;;792638;178;26447;-87
2023/11/20 15:45:09;;;;;;;18.70;9.47;;;10.50;94.00;;;;;;796727;179;26981;-87
2023/11/20 15:47:35;;;;;;;11.10;4.83;;;10.50;93.70;;;;;;794449;178;26478;-87
2023/11/20 15:50:02;;;;;;;13.93;5.00;;;10.50;93.20;;;;;;789463;178;26979;-87
2023/11/20 15:52:28;;;;;;;14.90;7.27;;;10.60;93.00;;;;;;789148;178;26451;-88
2023/11/20 15:54:56;;;;;;;11.77;4.60;;;10.50;92.90;;;;;;797925;179;27080;-88
2023/11/20 15:57:22;;;;;;;15.00;7.30;;;10.50;93.10;;;;;;797812;178;26455;-88
2023/11/20 15:59:48;;;;;;;81.30;41.07;;;10.60;92.30;;;;;;800308;178;26982;-87
2023/11/20 16:02:15;;;;;;;50.43;20.77;;;10.50;92.50;;;;;;802935;178;26463;-88
2023/11/20 16:04:41;;;;;;;83.63;42.33;;;10.50;92.60;;;;;;802383;178;27210;-89
2023/11/20 16:07:08;;;;;;;276.00;144.60;;;10.60;92.30;;;;;;805109;176;26441;-88
2023/11/20 16:09:37;;;;;;;80.23;43.73;;;10.60;92.10;;;;;;810498;177;28079;-87
2023/11/20 16:12:01;;;;;;;46.23;24.07;;;10.60;92.20;;;;;;803445;176;26447;-88
2023/11/20 16:14:28;;;;;;;45.73;23.93;;;10.60;92.50;;;;;;801341;177;26951;-87
2023/11/20 16:16:54;;;;;;;13.60;5.00;;;10.50;92.70;;;;;;806104;178;26475;-88
2023/11/20 16:19:21;;;;;;;15.87;4.27;;;10.50;92.20;;;;;;806012;178;26429;-88
2023/11/20 16:21:48;;;;;;;16.10;6.17;;;10.50;92.50;;;;;;790048;176;26542;-88
2023/11/20 16:24:14;;;;;;;31.60;13.60;;;10.50;92.40;;;;;;790814;178;26440;-87
2023/11/20 16:26:41;;;;;;;30.07;14.67;;;10.50;91.90;;;;;;798845;178;27013;-87
2023/11/20 16:29:08;;;;;;;55.03;25.53;;;10.50;92.10;;;;;;794373;181;26432;-87
2023/11/20 16:31:34;;;;;;;28.43;13.67;;;10.50;91.80;;;;;;796184;180;27076;-87